Time;durP1;ratioP1;P1;durP2;ratioP2;P2;SDS_P1;SDS_P2;PMS_P1;PMS_P2;Temp;Humidity;BMP_temperature;BMP_pressure;BME280_temperature;BME280_humidity;BME280_pressure;Samples;Min_cycle;Max_cycle;Signal;HPM_P1;HPM_P2
2023/06/13 00:00:44;;;;;;;5.00;4.50;;;16.00;58.10;;;;;;5028947;28;20497;-63
2023/06/13 00:03:13;;;;;;;5.03;4.63;;;15.90;58.20;;;;;;5028063;28;20994;-63
2023/06/13 00:05:45;;;;;;;6.83;5.20;;;15.80;58.50;;;;;;5028832;28;20452;-63
2023/06/13 00:08:17;;;;;;;5.23;4.50;;;15.80;58.60;;;;;;5029500;28;20447;-64
2023/06/13 00:10:46;;;;;;;9.30;4.67;;;15.80;59.40;;;;;;5029180;28;20912;-64
2023/06/13 00:13:15;;;;;;;5.83;4.70;;;15.80;58.70;;;;;;5027680;28;20446;-63
2023/06/13 00:15:50;;;;;;;5.70;4.57;;;15.80;58.60;;;;;;5029203;28;20445;-63
2023/06/13 00:18:19;;;;;;;5.60;5.10;;;15.80;58.60;;;;;;5028768;28;20498;-64
2023/06/13 00:20:48;;;;;;;6.70;4.90;;;15.80;59.00;;;;;;5029109;28;20839;-63
2023/06/13 00:23:18;;;;;;;6.57;4.90;;;15.80;58.70;;;;;;5031393;28;20447;-64
2023/06/13 00:25:46;;;;;;;5.37;4.40;;;15.70;59.30;;;;;;5032656;28;20444;-64
2023/06/13 00:28:14;;;;;;;5.23;4.73;;;15.70;59.10;;;;;;5032669;28;20460;-63
2023/06/13 00:30:43;;;;;;;5.17;4.67;;;15.70;59.30;;;;;;5032140;28;20552;-63
2023/06/13 00:33:16;;;;;;;5.70;5.20;;;15.70;59.10;;;;;;5031616;28;20518;-64
2023/06/13 00:35:44;;;;;;;5.03;4.53;;;15.70;59.20;;;;;;5032505;28;20506;-64
2023/06/13 00:38:13;;;;;;;5.33;4.83;;;15.70;58.80;;;;;;5050612;28;21161;-64
2023/06/13 00:40:41;;;;;;;5.30;4.80;;;15.70;58.80;;;;;;5052230;28;20466;-63
2023/06/13 00:43:12;;;;;;;4.90;4.50;;;15.70;59.30;;;;;;5050815;28;20450;-64
2023/06/13 00:45:40;;;;;;;5.47;4.90;;;15.70;59.20;;;;;;5052681;28;20438;-64
2023/06/13 00:48:08;;;;;;;6.03;5.37;;;15.60;60.70;;;;;;5052243;28;20446;-64
2023/06/13 00:50:40;;;;;;;7.03;5.10;;;15.50;59.80;;;;;;5052552;28;20462;-64
2023/06/13 00:53:16;;;;;;;4.07;3.77;;;15.40;60.50;;;;;;5050938;28;20438;-64
2023/06/13 00:55:46;;;;;;;5.00;4.60;;;15.40;60.20;;;;;;5052287;28;20467;-64
2023/06/13 00:58:16;;;;;;;6.20;5.60;;;15.40;59.90;;;;;;5035379;28;20485;-63
2023/06/13 01:00:45;;;;;;;5.57;5.07;;;15.30;60.30;;;;;;5031757;28;20480;-64
2023/06/13 01:03:15;;;;;;;7.27;5.20;;;15.30;60.50;;;;;;5030999;28;20445;-64
2023/06/13 01:05:45;;;;;;;4.70;4.30;;;15.20;60.70;;;;;;5031684;28;20444;-64
2023/06/13 01:08:17;;;;;;;5.73;4.77;;;15.20;60.50;;;;;;5032143;28;20457;-64
2023/06/13 01:10:53;;;;;;;6.07;5.33;;;15.10;61.90;;;;;;5047334;28;20457;-64
2023/06/13 01:13:29;;;;;;;5.73;4.37;;;15.10;61.90;;;;;;5050906;28;20515;-64
2023/06/13 01:16:04;;;;;;;8.00;4.90;;;15.10;65.10;;;;;;5051628;28;20471;-64
2023/06/13 01:18:35;;;;;;;5.30;4.80;;;14.90;63.40;;;;;;5052268;28;20510;-63
2023/06/13 01:21:06;;;;;;;5.63;5.03;;;14.90;64.00;;;;;;5051946;28;20483;-63
2023/06/13 01:23:38;;;;;;;5.80;5.23;;;14.80;65.80;;;;;;5050082;28;20482;-63
2023/06/13 01:26:13;;;;;;;5.60;5.10;;;14.80;64.30;;;;;;5051569;28;20530;-64
2023/06/13 01:28:44;;;;;;;6.67;4.80;;;14.80;64.30;;;;;;5051779;28;20972;-63
2023/06/13 01:31:16;;;;;;;5.13;4.57;;;14.70;64.80;;;;;;5051496;28;20459;-63
2023/06/13 01:33:45;;;;;;;6.37;5.27;;;14.60;65.00;;;;;;5050076;28;20498;-64
2023/06/13 01:36:13;;;;;;;6.73;5.97;;;14.50;66.10;;;;;;5051659;28;20450;-63
2023/06/13 01:38:42;;;;;;;5.33;4.93;;;14.40;67.50;;;;;;5051906;28;20440;-64
2023/06/13 01:41:10;;;;;;;7.33;4.57;;;14.30;66.80;;;;;;5051491;28;20467;-64
2023/06/13 01:43:38;;;;;;;5.40;5.00;;;14.20;67.40;;;;;;5050344;28;20447;-64
2023/06/13 01:46:14;;;;;;;6.03;5.53;;;14.20;68.30;;;;;;5051291;28;20565;-64
2023/06/13 01:48:51;;;;;;;8.50;5.30;;;14.10;70.30;;;;;;5051336;28;20443;-63
2023/06/13 01:51:28;;;;;;;5.57;4.97;;;14.20;72.90;;;;;;5051029;28;20490;-63
2023/06/13 01:54:04;;;;;;;6.20;5.70;;;14.20;72.00;;;;;;5049385;28;20461;-63
2023/06/13 01:56:33;;;;;;;6.47;5.80;;;14.20;73.00;;;;;;5051070;28;20446;-64
2023/06/13 01:59:04;;;;;;;5.80;5.20;;;14.10;74.30;;;;;;5050738;28;20479;-64
2023/06/13 02:01:38;;;;;;;7.67;6.37;;;14.00;73.90;;;;;;5050744;28;20848;-63
2023/06/13 02:04:06;;;;;;;7.00;5.47;;;14.00;73.40;;;;;;5049612;28;20486;-64
2023/06/13 02:06:35;;;;;;;5.23;4.73;;;13.90;72.00;;;;;;5050895;28;20447;-64
2023/06/13 02:09:04;;;;;;;5.07;4.63;;;13.90;71.20;;;;;;5051066;28;20932;-63
2023/06/13 02:11:32;;;;;;;6.90;5.20;;;13.90;70.90;;;;;;5050723;28;20868;-63
2023/06/13 02:14:00;;;;;;;5.10;4.60;;;14.00;71.10;;;;;;5049922;28;20454;-63
2023/06/13 02:16:30;;;;;;;6.53;5.57;;;14.00;71.80;;;;;;5050405;28;20436;-63
2023/06/13 02:19:00;;;;;;;5.60;5.10;;;13.90;71.70;;;;;;5050489;28;20547;-63
2023/06/13 02:21:30;;;;;;;5.73;4.50;;;13.90;76.90;;;;;;5050390;28;20534;-63
2023/06/13 02:23:59;;;;;;;5.17;4.43;;;13.80;74.80;;;;;;5049014;28;20953;-64
2023/06/13 02:26:28;;;;;;;6.07;4.80;;;13.80;76.50;;;;;;5050524;28;20470;-64
2023/06/13 02:28:58;;;;;;;4.93;4.43;;;13.80;73.10;;;;;;5050010;28;20822;-64
2023/06/13 02:31:26;;;;;;;7.80;5.23;;;13.60;73.00;;;;;;5050272;28;20465;-64
2023/06/13 02:33:54;;;;;;;5.60;5.10;;;13.50;73.20;;;;;;5049081;28;20452;-64
2023/06/13 02:36:24;;;;;;;5.83;4.90;;;13.40;76.20;;;;;;5050420;28;20450;-64
2023/06/13 02:38:52;;;;;;;5.93;5.23;;;13.40;74.50;;;;;;5050236;28;20489;-65
2023/06/13 02:41:20;;;;;;;5.13;4.70;;;13.40;77.30;;;;;;5049726;28;20498;-64
2023/06/13 02:43:48;;;;;;;5.43;4.60;;;13.30;75.30;;;;;;5049152;28;20476;-63
2023/06/13 02:46:16;;;;;;;5.10;4.60;;;13.30;75.00;;;;;;5049447;28;20450;-63
2023/06/13 02:48:44;;;;;;;4.83;4.40;;;13.30;76.40;;;;;;5050411;28;20487;-63
2023/06/13 02:51:13;;;;;;;7.93;6.90;;;13.20;76.00;;;;;;5050575;28;20456;-63
2023/06/13 02:53:42;;;;;;;6.90;5.00;;;13.20;76.40;;;;;;5048609;28;20461;-63
2023/06/13 02:56:11;;;;;;;7.00;5.33;;;13.20;77.30;;;;;;5050084;28;20445;-63
2023/06/13 02:58:39;;;;;;;6.10;5.50;;;13.20;77.40;;;;;;5049949;28;20452;-63
2023/06/13 03:01:08;;;;;;;5.87;5.27;;;13.20;77.50;;;;;;5049715;28;21001;-63
2023/06/13 03:03:37;;;;;;;5.73;5.23;;;13.20;77.30;;;;;;5048161;28;20475;-63
2023/06/13 03:06:05;;;;;;;5.03;4.63;;;13.10;78.40;;;;;;5049831;28;20468;-63
2023/06/13 03:08:33;;;;;;;5.70;5.10;;;13.00;77.50;;;;;;5049771;28;20518;-63
2023/06/13 03:11:03;;;;;;;5.60;5.10;;;12.90;78.40;;;;;;5049527;28;20460;-63
2023/06/13 03:13:30;;;;;;;5.97;4.50;;;12.90;82.30;;;;;;5048694;28;20459;-63
2023/06/13 03:16:01;;;;;;;5.50;5.00;;;13.00;77.80;;;;;;5049358;28;20971;-63
2023/06/13 03:18:29;;;;;;;5.70;5.30;;;13.10;82.00;;;;;;5049561;28;21042;-62
2023/06/13 03:20:57;;;;;;;8.53;5.30;;;13.20;80.50;;;;;;5049372;28;20843;-63
2023/06/13 03:23:25;;;;;;;4.93;4.40;;;13.10;78.70;;;;;;5048373;28;20451;-62
2023/06/13 03:25:53;;;;;;;5.40;4.60;;;13.00;78.50;;;;;;5049371;28;20531;-62
2023/06/13 03:28:23;;;;;;;6.07;5.47;;;13.00;80.80;;;;;;5049083;28;20453;-63
2023/06/13 03:30:54;;;;;;;6.50;5.07;;;13.00;79.20;;;;;;5049688;28;20468;-63
2023/06/13 03:33:23;;;;;;;7.80;5.10;;;13.00;79.20;;;;;;5047878;28;20449;-63
2023/06/13 03:35:52;;;;;;;5.90;4.93;;;12.90;79.40;;;;;;5049737;28;20440;-64
2023/06/13 03:38:23;;;;;;;7.97;5.23;;;13.00;79.40;;;;;;5049552;28;20449;-63
2023/06/13 03:40:51;;;;;;;8.10;5.00;;;13.00;80.00;;;;;;5049279;28;20483;-64
2023/06/13 03:43:19;;;;;;;5.27;4.77;;;13.00;86.60;;;;;;5048193;28;20456;-63
2023/06/13 03:45:49;;;;;;;6.73;5.33;;;13.00;80.00;;;;;;5048827;28;20454;-63
2023/06/13 03:48:17;;;;;;;5.07;4.57;;;13.10;80.00;;;;;;5049490;28;20432;-63
2023/06/13 03:50:46;;;;;;;7.37;4.50;;;13.10;81.80;;;;;;5049381;28;20472;-63
2023/06/13 03:53:14;;;;;;;5.10;4.57;;;13.00;81.60;;;;;;5047804;28;20452;-63
2023/06/13 03:55:44;;;;;;;5.73;5.00;;;13.00;83.60;;;;;;5046316;28;20448;-64
2023/06/13 03:58:14;;;;;;;6.20;4.70;;;13.10;86.20;;;;;;5050646;28;20961;-64
2023/06/13 04:00:44;;;;;;;6.63;5.20;;;13.10;83.90;;;;;;5054856;28;20541;-63
2023/06/13 04:03:13;;;;;;;6.00;4.83;;;13.20;80.40;;;;;;5051691;28;20439;-65
2023/06/13 04:05:42;;;;;;;4.57;4.17;;;13.20;81.80;;;;;;5053060;28;20443;-65
2023/06/13 04:08:10;;;;;;;6.80;4.53;;;13.40;78.80;;;;;;5052844;28;20534;-65
2023/06/13 04:10:38;;;;;;;7.93;4.70;;;13.50;79.80;;;;;;5052848;28;20515;-64
2023/06/13 04:13:06;;;;;;;6.63;4.67;;;13.70;77.60;;;;;;5051688;28;20448;-64
2023/06/13 04:15:34;;;;;;;5.27;4.17;;;13.80;77.00;;;;;;5052902;28;20441;-63
2023/06/13 04:18:03;;;;;;;4.83;3.90;;;13.90;80.30;;;;;;5052877;28;20466;-64
2023/06/13 04:20:34;;;;;;;5.60;3.90;;;13.90;79.20;;;;;;5052352;28;20895;-63
2023/06/13 04:23:02;;;;;;;6.77;4.60;;;13.90;82.40;;;;;;5051662;28;20826;-64
2023/06/13 04:25:32;;;;;;;4.17;3.70;;;13.80;84.60;;;;;;5052686;28;20444;-64
2023/06/13 04:28:00;;;;;;;6.50;4.03;;;13.80;78.20;;;;;;5052574;28;20908;-65
2023/06/13 04:30:28;;;;;;;6.60;4.87;;;13.80;86.90;;;;;;5052739;28;20882;-64
2023/06/13 04:32:58;;;;;;;4.37;3.83;;;13.80;82.30;;;;;;5051353;28;20485;-66
2023/06/13 04:35:27;;;;;;;4.93;4.43;;;13.80;81.70;;;;;;5052803;28;20447;-64
2023/06/13 04:37:57;;;;;;;4.27;3.33;;;13.80;81.70;;;;;;5052629;28;20953;-65
2023/06/13 04:40:31;;;;;;;4.90;4.50;;;13.90;82.10;;;;;;5050805;28;20467;-64
2023/06/13 04:43:04;;;;;;;4.70;4.30;;;14.00;81.20;;;;;;5051527;28;20479;-65
2023/06/13 04:45:33;;;;;;;5.03;4.40;;;13.80;82.80;;;;;;5051495;28;20529;-64
2023/06/13 04:48:03;;;;;;;4.23;3.83;;;14.00;85.00;;;;;;5052553;28;20444;-66
2023/06/13 04:50:33;;;;;;;5.23;4.20;;;14.00;80.60;;;;;;5051793;28;21037;-66
2023/06/13 04:53:07;;;;;;;6.90;4.37;;;14.00;80.60;;;;;;5050786;28;20451;-67
2023/06/13 04:55:37;;;;;;;4.77;4.37;;;14.00;82.80;;;;;;5051457;28;20538;-66
2023/06/13 04:58:06;;;;;;;4.30;3.90;;;14.00;83.60;;;;;;5052149;28;20543;-66
2023/06/13 05:00:34;;;;;;;7.70;4.07;;;14.10;77.90;;;;;;5052225;28;20756;-66
2023/06/13 05:03:02;;;;;;;4.73;4.33;;;14.20;83.00;;;;;;5049046;28;20441;-67
2023/06/13 05:05:30;;;;;;;4.90;4.40;;;14.40;77.80;;;;;;5032027;28;20946;-67
2023/06/13 05:08:01;;;;;;;6.67;3.57;;;14.50;77.40;;;;;;5031541;28;20455;-66
2023/06/13 05:10:30;;;;;;;7.80;4.50;;;14.60;77.10;;;;;;5032664;28;20520;-67
2023/06/13 05:12:59;;;;;;;5.80;3.80;;;14.70;74.80;;;;;;5031064;28;21036;-66
2023/06/13 05:15:27;;;;;;;5.57;4.87;;;14.70;75.10;;;;;;5031925;28;20450;-66
2023/06/13 05:17:56;;;;;;;8.47;4.50;;;14.90;74.60;;;;;;5032012;28;20480;-67
2023/06/13 05:20:28;;;;;;;7.30;4.00;;;14.90;75.80;;;;;;5031448;28;20460;-67
2023/06/13 05:22:56;;;;;;;7.77;4.60;;;14.90;79.60;;;;;;5030716;28;20585;-67
2023/06/13 05:25:25;;;;;;;5.30;4.67;;;15.00;74.70;;;;;;5031758;28;21135;-68
2023/06/13 05:27:56;;;;;;;8.33;4.40;;;15.10;79.50;;;;;;5031691;28;20440;-67
2023/06/13 05:30:25;;;;;;;5.03;4.13;;;15.10;76.30;;;;;;5032098;28;20891;-67
2023/06/13 05:32:53;;;;;;;5.33;3.70;;;15.20;80.40;;;;;;5030977;28;20445;-66
2023/06/13 05:35:22;;;;;;;9.40;4.50;;;15.30;77.80;;;;;;5031958;28;20518;-67
2023/06/13 05:37:51;;;;;;;5.10;4.10;;;15.30;80.70;;;;;;5031601;28;20485;-67
2023/06/13 05:40:19;;;;;;;5.60;3.93;;;15.40;82.50;;;;;;5031550;28;20478;-67
2023/06/13 05:42:47;;;;;;;4.50;3.83;;;15.50;79.00;;;;;;5030012;28;20481;-67
2023/06/13 05:45:17;;;;;;;4.40;4.00;;;15.50;76.40;;;;;;5031428;28;20438;-68
2023/06/13 05:47:45;;;;;;;3.50;3.20;;;15.70;71.90;;;;;;5031354;28;20441;-67
2023/06/13 05:50:13;;;;;;;3.40;3.07;;;15.90;68.60;;;;;;5031050;28;20545;-67
2023/06/13 05:52:41;;;;;;;4.03;3.63;;;16.00;66.80;;;;;;5029788;28;20764;-68
2023/06/13 05:55:10;;;;;;;4.40;3.53;;;16.10;65.80;;;;;;5031014;28;20945;-68
2023/06/13 05:57:40;;;;;;;4.17;3.87;;;16.20;65.50;;;;;;5031565;28;20471;-68
2023/06/13 06:00:11;;;;;;;6.20;3.73;;;16.40;62.80;;;;;;5030993;28;20461;-67
2023/06/13 06:02:42;;;;;;;5.87;3.60;;;16.50;63.50;;;;;;5029853;28;20534;-67
2023/06/13 06:05:13;;;;;;;6.27;3.50;;;16.70;59.20;;;;;;5030845;28;20444;-67
2023/06/13 06:07:42;;;;;;;3.73;3.43;;;16.80;57.40;;;;;;5030915;28;20784;-68
2023/06/13 06:10:12;;;;;;;4.03;3.60;;;16.90;58.00;;;;;;5030852;28;20472;-68
2023/06/13 06:12:41;;;;;;;3.97;2.70;;;17.00;58.80;;;;;;5029729;28;20435;-67
2023/06/13 06:15:10;;;;;;;3.73;3.40;;;17.10;57.60;;;;;;5031354;28;20538;-69
2023/06/13 06:17:38;;;;;;;4.47;4.07;;;17.10;56.80;;;;;;5050377;28;20436;-66
2023/06/13 06:20:09;;;;;;;10.97;3.67;;;17.20;56.50;;;;;;5051555;28;21039;-66
2023/06/13 06:22:37;;;;;;;4.07;3.00;;;17.30;56.50;;;;;;5049335;28;20493;-66
2023/06/13 06:25:08;;;;;;;3.40;3.13;;;17.40;54.40;;;;;;5050489;28;20443;-67
2023/06/13 06:27:36;;;;;;;4.40;2.97;;;17.50;53.00;;;;;;5050342;28;20976;-66
2023/06/13 06:30:05;;;;;;;3.43;3.00;;;17.50;53.30;;;;;;5050298;28;20474;-67
2023/06/13 06:32:33;;;;;;;4.30;3.60;;;17.70;53.40;;;;;;5049418;28;20510;-66
2023/06/13 06:35:03;;;;;;;4.43;3.17;;;17.70;54.00;;;;;;5050715;28;20839;-66
2023/06/13 06:37:33;;;;;;;4.27;2.90;;;17.80;54.00;;;;;;5041298;28;20824;-66
2023/06/13 06:40:02;;;;;;;4.13;3.50;;;17.90;53.40;;;;;;5048642;28;20985;-68
2023/06/13 06:42:30;;;;;;;6.70;5.30;;;17.90;53.00;;;;;;5042511;28;20508;-67
2023/06/13 06:44:58;;;;;;;3.90;3.50;;;18.00;53.10;;;;;;5038605;28;20495;-67
2023/06/13 06:47:26;;;;;;;3.70;3.40;;;18.10;52.30;;;;;;5041014;28;20452;-67
2023/06/13 06:49:54;;;;;;;5.17;3.40;;;18.20;51.40;;;;;;5037938;28;20499;-67
2023/06/13 06:52:22;;;;;;;4.00;3.63;;;18.30;51.20;;;;;;5046280;28;20444;-67
2023/06/13 06:54:51;;;;;;;4.77;3.30;;;18.40;50.20;;;;;;5046203;28;20452;-69
2023/06/13 06:57:20;;;;;;;3.97;3.03;;;18.40;50.10;;;;;;5052112;28;20523;-67
2023/06/13 06:59:50;;;;;;;4.30;3.67;;;18.50;49.40;;;;;;5034427;28;21185;-67
2023/06/13 07:02:18;;;;;;;4.30;3.67;;;18.60;49.70;;;;;;5034819;28;20540;-66
2023/06/13 07:04:46;;;;;;;4.90;4.13;;;18.70;50.60;;;;;;5043213;28;20532;-67
2023/06/13 07:07:14;;;;;;;7.43;3.70;;;18.80;49.80;;;;;;5041740;28;20457;-67
2023/06/13 07:09:42;;;;;;;7.30;3.50;;;18.90;48.70;;;;;;5032767;28;20510;-67
2023/06/13 07:12:12;;;;;;;4.90;3.60;;;18.90;48.20;;;;;;5036300;28;20443;-68
2023/06/13 07:14:40;;;;;;;3.90;3.20;;;18.90;46.00;;;;;;5039884;28;20443;-68
2023/06/13 07:17:08;;;;;;;7.70;3.47;;;19.00;47.00;;;;;;5038894;28;20437;-68
2023/06/13 07:19:36;;;;;;;6.43;3.67;;;19.10;46.10;;;;;;5033067;28;20540;-68
2023/06/13 07:22:05;;;;;;;3.53;3.23;;;19.10;45.70;;;;;;5029407;28;20453;-68
2023/06/13 07:24:33;;;;;;;3.90;3.60;;;19.20;45.80;;;;;;5028978;28;20440;-68
2023/06/13 07:27:01;;;;;;;4.13;3.00;;;19.20;46.70;;;;;;5037536;28;20444;-68
2023/06/13 07:29:31;;;;;;;4.13;3.73;;;19.40;44.60;;;;;;5037433;28;20444;-68
2023/06/13 07:31:59;;;;;;;3.33;3.03;;;19.50;45.70;;;;;;5041104;28;21291;-68
2023/06/13 07:34:27;;;;;;;6.67;4.00;;;19.60;46.10;;;;;;5035491;28;20475;-67
2023/06/13 07:37:15;;;;;;;5.00;3.63;;;19.60;44.70;;;;;;5050450;28;20440;-67
2023/06/13 07:39:43;;;;;;;3.90;3.50;;;19.80;45.30;;;;;;5051948;28;20440;-67
2023/06/13 07:42:11;;;;;;;6.57;3.27;;;19.90;45.50;;;;;;5051949;28;20447;-68
2023/06/13 07:44:41;;;;;;;3.77;3.47;;;19.90;44.60;;;;;;5046224;28;20498;-66
2023/06/13 07:47:10;;;;;;;4.20;3.80;;;20.00;44.90;;;;;;5040710;28;21024;-67
2023/06/13 07:49:38;;;;;;;4.53;3.60;;;20.20;44.50;;;;;;5040041;28;20432;-67
2023/06/13 07:52:07;;;;;;;3.43;3.13;;;20.30;43.20;;;;;;5042274;28;20440;-67
2023/06/13 07:54:36;;;;;;;5.60;3.77;;;20.40;44.60;;;;;;5039085;28;20829;-67
2023/06/13 07:57:06;;;;;;;4.23;3.67;;;20.50;43.50;;;;;;5036082;28;20444;-67
2023/06/13 07:59:56;;;;;;;3.70;3.13;;;20.50;42.10;;;;;;5033431;28;20457;-67
2023/06/13 08:02:25;;;;;;;5.90;3.70;;;20.60;42.40;;;;;;5031014;28;21078;-67
2023/06/13 08:04:54;;;;;;;4.60;3.30;;;20.50;41.90;;;;;;5033410;28;20214;-67
2023/06/13 08:07:23;;;;;;;4.80;4.10;;;20.60;42.60;;;;;;5033148;28;20502;-67
2023/06/13 08:09:51;;;;;;;4.80;3.17;;;20.70;43.60;;;;;;5033008;28;21025;-67
2023/06/13 08:12:19;;;;;;;5.43;3.33;;;20.70;42.00;;;;;;5032433;28;20793;-66
2023/06/13 08:14:47;;;;;;;6.33;3.77;;;20.80;42.50;;;;;;5032553;28;20436;-67
2023/06/13 08:17:16;;;;;;;4.07;3.67;;;21.00;43.90;;;;;;5032951;28;20539;-67
2023/06/13 08:19:48;;;;;;;4.80;3.67;;;21.10;41.90;;;;;;5033010;28;20451;-67
2023/06/13 08:22:16;;;;;;;4.37;3.40;;;21.20;42.20;;;;;;5032237;28;20480;-67
2023/06/13 08:24:44;;;;;;;4.37;3.70;;;21.30;41.80;;;;;;5032142;28;20480;-66
2023/06/13 08:27:14;;;;;;;4.27;3.87;;;21.40;41.80;;;;;;5032819;28;20498;-67
2023/06/13 08:29:43;;;;;;;10.40;3.97;;;21.40;41.00;;;;;;5044827;28;20444;-67
2023/06/13 08:32:11;;;;;;;9.43;3.97;;;21.50;42.80;;;;;;5052379;28;20971;-67
2023/06/13 08:34:40;;;;;;;7.07;4.80;;;21.60;42.90;;;;;;5051787;28;20440;-68
2023/06/13 08:37:08;;;;;;;4.40;3.67;;;21.70;40.20;;;;;;5052580;28;20490;-68
2023/06/13 08:39:36;;;;;;;5.60;4.37;;;21.70;40.80;;;;;;5052407;28;20489;-67
2023/06/13 08:42:10;;;;;;;4.10;3.70;;;21.80;41.40;;;;;;5051945;28;20440;-67
2023/06/13 08:44:39;;;;;;;4.50;4.13;;;21.90;41.00;;;;;;5050697;28;20479;-68
2023/06/13 08:47:07;;;;;;;6.20;4.30;;;21.90;41.30;;;;;;5052493;28;20561;-67
2023/06/13 08:49:55;;;;;;;4.33;3.93;;;22.00;40.00;;;;;;5052249;28;20964;-67
2023/06/13 08:52:26;;;;;;;5.83;4.00;;;22.00;42.40;;;;;;5051477;28;20490;-66
2023/06/13 08:54:59;;;;;;;5.13;4.20;;;22.20;41.20;;;;;;5052088;28;20451;-67
2023/06/13 08:57:49;;;;;;;6.80;4.27;;;22.20;39.40;;;;;;5052197;28;20472;-67
2023/06/13 09:00:18;;;;;;;5.50;3.93;;;22.10;41.80;;;;;;5052348;28;20500;-67
2023/06/13 09:02:47;;;;;;;7.43;4.20;;;22.30;41.20;;;;;;5050863;28;20526;-67
2023/06/13 09:05:18;;;;;;;4.57;3.93;;;22.40;42.50;;;;;;5052084;28;20979;-68
2023/06/13 09:07:47;;;;;;;4.00;3.70;;;22.50;42.20;;;;;;5052164;28;20459;-67
2023/06/13 09:10:15;;;;;;;4.57;3.77;;;22.50;39.40;;;;;;5051914;28;20468;-68
2023/06/13 09:12:49;;;;;;;4.50;4.13;;;22.50;41.10;;;;;;5050799;28;20443;-67
2023/06/13 09:15:17;;;;;;;4.20;3.80;;;22.50;40.00;;;;;;5051724;28;20439;-67
2023/06/13 09:17:46;;;;;;;6.00;4.57;;;22.60;40.10;;;;;;5051687;28;20989;-67
2023/06/13 09:20:15;;;;;;;4.10;3.80;;;22.70;40.30;;;;;;5051768;28;20459;-67
2023/06/13 09:22:44;;;;;;;3.90;3.60;;;22.80;39.50;;;;;;5050734;28;21042;-67
2023/06/13 09:25:16;;;;;;;4.40;4.00;;;22.70;38.90;;;;;;5051709;28;20490;-68
2023/06/13 09:27:44;;;;;;;5.17;4.37;;;22.80;40.40;;;;;;5051745;28;20494;-67
2023/06/13 09:30:15;;;;;;;8.37;4.70;;;22.90;39.20;;;;;;5051886;28;20460;-67
2023/06/13 09:32:49;;;;;;;4.50;4.10;;;22.90;39.80;;;;;;5050655;28;20477;-69
2023/06/13 09:35:19;;;;;;;6.87;4.03;;;23.20;40.70;;;;;;5051839;28;20482;-67
2023/06/13 09:38:06;;;;;;;3.90;3.50;;;23.40;40.70;;;;;;5051646;28;20857;-67
2023/06/13 09:40:35;;;;;;;5.37;3.63;;;23.60;41.20;;;;;;5051919;28;20526;-67
2023/06/13 09:43:03;;;;;;;7.87;4.10;;;23.80;38.50;;;;;;5050693;28;20551;-67
2023/06/13 09:45:33;;;;;;;5.00;4.50;;;24.00;40.30;;;;;;5051217;28;20890;-67
2023/06/13 09:48:01;;;;;;;5.23;4.00;;;24.10;37.00;;;;;;5051008;28;20428;-68
2023/06/13 09:50:32;;;;;;;5.70;4.07;;;24.20;35.00;;;;;;5050747;28;20460;-68
2023/06/13 09:53:01;;;;;;;4.50;3.60;;;24.20;36.40;;;;;;5049693;28;20483;-68
2023/06/13 09:55:29;;;;;;;4.50;4.10;;;24.30;35.80;;;;;;5050707;28;20488;-67
2023/06/13 09:57:57;;;;;;;6.73;4.63;;;24.30;36.80;;;;;;5051061;28;20444;-68
2023/06/13 10:00:48;;;;;;;5.40;3.90;;;24.50;36.40;;;;;;5051023;28;20464;-68
2023/06/13 10:03:18;;;;;;;5.07;3.93;;;25.20;36.40;;;;;;5049802;28;20444;-68
2023/06/13 10:05:50;;;;;;;4.03;3.73;;;26.00;34.10;;;;;;5050675;28;20957;-68
2023/06/13 10:08:19;;;;;;;4.63;4.23;;;26.70;34.30;;;;;;5050851;28;20466;-68
2023/06/13 10:10:48;;;;;;;4.60;3.80;;;27.30;30.60;;;;;;5050858;28;20513;-68
2023/06/13 10:13:22;;;;;;;4.43;3.50;;;27.50;29.90;;;;;;5049917;28;20495;-67
2023/06/13 10:15:53;;;;;;;8.23;4.43;;;27.60;30.10;;;;;;5050594;28;20941;-67
2023/06/13 10:18:24;;;;;;;4.93;4.27;;;27.70;30.80;;;;;;5050740;28;20436;-68
2023/06/13 10:20:56;;;;;;;4.40;4.00;;;28.30;30.90;;;;;;5050553;28;20523;-67
2023/06/13 10:23:28;;;;;;;5.00;4.10;;;28.60;30.00;;;;;;5049601;28;20451;-67
2023/06/13 10:26:01;;;;;;;4.70;4.13;;;28.90;30.30;;;;;;5050226;28;20432;-68
2023/06/13 10:28:47;;;;;;;7.30;4.30;;;29.30;28.90;;;;;;5050544;28;20482;-68
2023/06/13 10:31:26;;;;;;;4.77;4.07;;;29.10;31.50;;;;;;5050374;28;20536;-68
2023/06/13 10:34:15;;;;;;;4.30;3.90;;;29.00;28.10;;;;;;5049250;28;20428;-68
2023/06/13 10:37:08;;;;;;;4.93;4.10;;;29.00;27.40;;;;;;5048847;28;20498;-67
2023/06/13 10:39:58;;;;;;;4.73;3.90;;;28.70;28.50;;;;;;5050207;28;20451;-68
2023/06/13 10:42:31;;;;;;;4.63;4.10;;;29.00;29.80;;;;;;5048991;28;20459;-68
2023/06/13 10:45:03;;;;;;;4.53;4.00;;;29.80;28.90;;;;;;5049867;28;20591;-67
2023/06/13 10:47:32;;;;;;;6.60;5.23;;;30.00;28.50;;;;;;5050150;28;20451;-67
2023/06/13 10:50:02;;;;;;;5.07;4.17;;;29.60;26.30;;;;;;5049964;28;20460;-67
2023/06/13 10:52:32;;;;;;;7.03;4.03;;;27.80;28.30;;;;;;5049186;28;20498;-68
2023/06/13 10:55:01;;;;;;;4.97;4.47;;;28.00;30.30;;;;;;5049821;28;20447;-68
2023/06/13 10:57:49;;;;;;;6.67;4.60;;;28.60;29.50;;;;;;5050148;28;20451;-67
2023/06/13 11:00:31;;;;;;;4.80;4.37;;;29.00;29.10;;;;;;5049975;28;20468;-68
2023/06/13 11:03:01;;;;;;;6.17;4.33;;;29.20;27.50;;;;;;5048709;28;20440;-68
2023/06/13 11:05:30;;;;;;;3.90;3.50;;;29.00;29.40;;;;;;5049294;28;20511;-68
2023/06/13 11:08:15;;;;;;;4.47;3.93;;;28.80;28.70;;;;;;5049953;28;20444;-68
2023/06/13 11:10:45;;;;;;;4.50;3.90;;;29.10;28.00;;;;;;5049773;28;20475;-67
2023/06/13 11:13:18;;;;;;;5.97;4.57;;;29.60;27.70;;;;;;5048790;28;20448;-68
2023/06/13 11:15:47;;;;;;;4.53;4.10;;;30.10;28.50;;;;;;5049905;28;20494;-68
2023/06/13 11:18:35;;;;;;;4.40;4.00;;;30.30;26.70;;;;;;5049862;28;20437;-67
2023/06/13 11:21:03;;;;;;;6.27;4.30;;;30.40;28.60;;;;;;5049817;28;20463;-68
2023/06/13 11:23:45;;;;;;;4.97;4.57;;;30.90;26.70;;;;;;5048809;28;20436;-67
2023/06/13 11:26:19;;;;;;;4.20;3.80;;;30.90;28.50;;;;;;5049864;28;20479;-67
2023/06/13 11:28:48;;;;;;;4.90;4.13;;;31.20;27.70;;;;;;5050030;28;20443;-67
2023/06/13 11:31:18;;;;;;;6.37;4.90;;;31.50;29.00;;;;;;5049636;28;20463;-68
2023/06/13 11:33:48;;;;;;;4.13;3.73;;;32.10;26.40;;;;;;5048420;28;20431;-68
2023/06/13 11:36:17;;;;;;;4.67;3.83;;;31.30;25.80;;;;;;5049638;28;20450;-68
2023/06/13 11:39:02;;;;;;;4.80;4.30;;;31.00;26.90;;;;;;5049411;28;20443;-67
2023/06/13 11:41:30;;;;;;;4.97;4.30;;;31.60;28.70;;;;;;5049628;28;20490;-69
2023/06/13 11:43:59;;;;;;;4.60;4.20;;;32.10;26.70;;;;;;5048641;28;20432;-68
2023/06/13 11:46:27;;;;;;;6.30;4.00;;;32.60;27.20;;;;;;5049423;28;20472;-67
2023/06/13 11:48:55;;;;;;;7.17;4.40;;;32.70;25.80;;;;;;5036495;28;21160;-67
2023/06/13 11:51:24;;;;;;;6.53;5.87;;;32.80;25.50;;;;;;5038693;28;20472;-68
2023/06/13 11:53:55;;;;;;;4.70;4.30;;;32.70;24.70;;;;;;5042235;28;20449;-68
2023/06/13 11:56:25;;;;;;;4.27;3.87;;;32.70;26.30;;;;;;5041074;28;20457;-69
2023/06/13 11:58:54;;;;;;;4.60;4.20;;;33.10;26.50;;;;;;5054554;28;20482;-67
2023/06/13 12:01:25;;;;;;;4.10;3.73;;;33.20;24.80;;;;;;5044289;28;20464;-67
2023/06/13 12:04:03;;;;;;;6.00;4.50;;;32.80;22.90;;;;;;5036739;28;20447;-67
2023/06/13 12:06:31;;;;;;;4.60;4.30;;;31.30;24.90;;;;;;5039443;28;20508;-68
2023/06/13 12:09:01;;;;;;;4.97;4.43;;;30.50;26.40;;;;;;5038508;28;20599;-67
2023/06/13 12:11:31;;;;;;;4.77;4.27;;;29.50;28.50;;;;;;5039240;28;20460;-68
2023/06/13 12:14:01;;;;;;;5.57;4.67;;;29.00;26.90;;;;;;5038013;28;20432;-68
2023/06/13 12:16:30;;;;;;;4.47;3.83;;;29.00;28.50;;;;;;5035010;28;20444;-69
2023/06/13 12:19:00;;;;;;;5.57;4.00;;;30.10;29.40;;;;;;5043009;28;20436;-67
2023/06/13 12:21:31;;;;;;;4.50;4.10;;;31.50;26.70;;;;;;5049310;28;20460;-68
2023/06/13 12:24:03;;;;;;;5.47;4.77;;;32.20;25.60;;;;;;5045321;28;20447;-65
2023/06/13 12:26:34;;;;;;;6.27;4.63;;;32.50;27.50;;;;;;5043318;28;20486;-67
2023/06/13 12:29:06;;;;;;;6.50;4.80;;;32.40;25.10;;;;;;5037517;28;20436;-66
2023/06/13 12:31:38;;;;;;;4.93;4.20;;;32.50;26.60;;;;;;5048819;28;20460;-67
2023/06/13 12:34:08;;;;;;;4.77;4.30;;;33.10;26.40;;;;;;5032540;28;20461;-67
2023/06/13 12:36:44;;;;;;;5.23;4.33;;;33.70;26.50;;;;;;5043705;28;20447;-68
2023/06/13 12:39:15;;;;;;;4.70;4.30;;;34.20;25.50;;;;;;5035749;28;20958;-68
2023/06/13 12:41:48;;;;;;;4.17;3.87;;;34.80;23.50;;;;;;5036513;28;20490;-68
2023/06/13 12:44:17;;;;;;;5.20;4.80;;;35.20;24.20;;;;;;5042473;28;20499;-68
2023/06/13 12:46:46;;;;;;;7.80;4.70;;;34.90;23.70;;;;;;5044831;28;20480;-67
2023/06/13 12:49:15;;;;;;;4.73;4.33;;;34.30;23.80;;;;;;5035713;28;20527;-67
2023/06/13 12:51:44;;;;;;;5.13;4.63;;;34.00;24.20;;;;;;5047009;28;20457;-67
2023/06/13 12:54:15;;;;;;;4.80;4.03;;;34.20;24.20;;;;;;5041412;28;20448;-68
2023/06/13 12:56:51;;;;;;;5.47;4.57;;;34.40;24.90;;;;;;5039519;28;20520;-67
2023/06/13 12:59:28;;;;;;;5.20;4.70;;;34.50;22.60;;;;;;5048558;28;20444;-67
2023/06/13 13:01:56;;;;;;;4.87;4.47;;;33.10;24.30;;;;;;5035392;28;20440;-67
2023/06/13 13:04:29;;;;;;;4.67;4.27;;;33.50;23.40;;;;;;5052137;28;20474;-67